ASA867 KSLC-PHNL
Flight info
| Callsign | ASA867 |
|---|---|
| Flight time | 6h 18m |
| Altitude | 32000 |
| Route | DEZRT2 BAM J32 FMG PYE BEBOP R464 BARAZ/N0457F340 R464 BITTA MAGGI3 |
| Aircraft | A321/M-SDE3FGHIRWY/LB1 |
Departure
| Time | 2026-05-07 15:24 |
|---|---|
| Airport | Salt Lake City International Airport (KSLC) |
Arrival
| Time | 2026-05-07 21:43 |
|---|---|
| Airport | Daniel K. Inouye International Airport (PHNL) |
| Time | Latitude | Longitude | Altitude | Speed | Heading |
|---|---|---|---|---|---|
| 2026-05-07 14:41 | 40.78812 | -111.99103 | 4231 ft | 0 kts | 355° |
| 2026-05-07 15:15 | 40.78796 | -111.99101 | 4231 ft | 4 kts | 355° |
| 2026-05-07 15:15 | 40.78769 | -111.99097 | 4231 ft | 4 kts | 341° |
| 2026-05-07 15:15 | 40.78747 | -111.99081 | 4231 ft | 4 kts | 311° |
| 2026-05-07 15:15 | 40.78736 | -111.99054 | 4231 ft | 3 kts | 266° |
| 2026-05-07 15:16 | 40.78736 | -111.99044 | 4231 ft | 0 kts | 264° |
| 2026-05-07 15:18 | 40.78734 | -111.99078 | 4231 ft | 7 kts | 264° |
| 2026-05-07 15:18 | 40.78727 | -111.99168 | 4231 ft | 12 kts | 265° |
| 2026-05-07 15:18 | 40.78725 | -111.99271 | 4231 ft | 11 kts | 270° |
| 2026-05-07 15:18 | 40.78729 | -111.99364 | 4231 ft | 11 kts | 300° |
| 2026-05-07 15:19 | 40.78821 | -111.99388 | 4231 ft | 17 kts | 354° |
| 2026-05-07 15:19 | 40.78955 | -111.99404 | 4231 ft | 20 kts | 354° |
| 2026-05-07 15:19 | 40.79086 | -111.99418 | 4231 ft | 17 kts | 354° |
| 2026-05-07 15:19 | 40.79198 | -111.99431 | 4231 ft | 16 kts | 355° |
| 2026-05-07 15:20 | 40.79328 | -111.99447 | 4231 ft | 23 kts | 355° |
| 2026-05-07 15:20 | 40.79487 | -111.99465 | 4231 ft | 22 kts | 355° |
| 2026-05-07 15:20 | 40.79627 | -111.99481 | 4231 ft | 19 kts | 355° |
| 2026-05-07 15:20 | 40.79748 | -111.99496 | 4231 ft | 16 kts | 355° |
| 2026-05-07 15:21 | 40.79858 | -111.99508 | 4231 ft | 19 kts | 355° |
| 2026-05-07 15:21 | 40.80005 | -111.99525 | 4231 ft | 21 kts | 355° |
| 2026-05-07 15:21 | 40.80146 | -111.99544 | 4231 ft | 19 kts | 347° |
| 2026-05-07 15:21 | 40.80232 | -111.99641 | 4231 ft | 15 kts | 336° |
| 2026-05-07 15:22 | 40.80329 | -111.99661 | 4231 ft | 15 kts | 355° |
| 2026-05-07 15:22 | 40.80437 | -111.99673 | 4231 ft | 15 kts | 355° |
| 2026-05-07 15:22 | 40.80547 | -111.99686 | 4231 ft | 19 kts | 355° |
| 2026-05-07 15:22 | 40.80673 | -111.99700 | 4231 ft | 17 kts | 355° |
| 2026-05-07 15:23 | 40.80771 | -111.99742 | 4231 ft | 14 kts | 294° |
| 2026-05-07 15:23 | 40.80763 | -111.99870 | 4230 ft | 15 kts | 258° |
| 2026-05-07 15:23 | 40.80687 | -111.99923 | 4231 ft | 4 kts | 177° |
| 2026-05-07 15:23 | 40.80620 | -111.99916 | 4231 ft | 37 kts | 174° |
| 2026-05-07 15:24 | 40.80133 | -111.99857 | 4232 ft | 101 kts | 175° |
| 2026-05-07 15:24 | 40.79246 | -111.99753 | 4231 ft | 152 kts | 175° |
| 2026-05-07 15:24 | 40.78045 | -111.99608 | 4254 ft | 191 kts | 175° |
| 2026-05-07 15:24 | 40.76745 | -111.99527 | 5033 ft | 184 kts | 185° |
| 2026-05-07 15:25 | 40.75610 | -112.00302 | 5646 ft | 194 kts | 231° |
| 2026-05-07 15:25 | 40.75168 | -112.02001 | 6121 ft | 202 kts | 263° |
| 2026-05-07 15:25 | 40.75422 | -112.03850 | 6271 ft | 211 kts | 289° |
| 2026-05-07 15:25 | 40.75960 | -112.05679 | 6409 ft | 217 kts | 289° |
| 2026-05-07 15:26 | 40.76519 | -112.07558 | 6542 ft | 223 kts | 289° |
| 2026-05-07 15:26 | 40.77095 | -112.09492 | 6670 ft | 230 kts | 288° |
| 2026-05-07 15:26 | 40.77685 | -112.11480 | 6785 ft | 237 kts | 289° |
| 2026-05-07 15:26 | 40.78308 | -112.13587 | 6905 ft | 254 kts | 289° |
| 2026-05-07 15:27 | 40.78972 | -112.15835 | 7050 ft | 272 kts | 289° |
| 2026-05-07 15:27 | 40.79669 | -112.18187 | 7465 ft | 277 kts | 289° |
| 2026-05-07 15:27 | 40.80375 | -112.20557 | 8033 ft | 278 kts | 290° |
| 2026-05-07 15:27 | 40.81073 | -112.22897 | 8639 ft | 277 kts | 290° |
| 2026-05-07 15:28 | 40.81776 | -112.25262 | 9258 ft | 277 kts | 291° |
| 2026-05-07 15:28 | 40.82475 | -112.27624 | 9885 ft | 276 kts | 291° |
| 2026-05-07 15:28 | 40.82951 | -112.29232 | 10161 ft | 282 kts | 291° |
| 2026-05-07 15:28 | 40.83935 | -112.32563 | 10315 ft | 305 kts | 291° |
| 2026-05-07 15:29 | 40.84464 | -112.34360 | 10392 ft | 317 kts | 291° |
| 2026-05-07 15:29 | 40.85285 | -112.37140 | 10512 ft | 333 kts | 291° |
| 2026-05-07 15:29 | 40.86135 | -112.40023 | 10847 ft | 340 kts | 291° |
| 2026-05-07 15:29 | 40.86817 | -112.43019 | 11334 ft | 343 kts | 281° |
| 2026-05-07 15:30 | 40.87003 | -112.46176 | 11836 ft | 347 kts | 269° |
| 2026-05-07 15:30 | 40.86801 | -112.49370 | 12362 ft | 350 kts | 267° |
| 2026-05-07 15:30 | 40.86580 | -112.52582 | 12889 ft | 352 kts | 267° |
| 2026-05-07 15:30 | 40.86366 | -112.55812 | 13435 ft | 354 kts | 267° |
| 2026-05-07 15:31 | 40.86151 | -112.59064 | 13937 ft | 357 kts | 267° |
| 2026-05-07 15:31 | 40.85910 | -112.62333 | 14393 ft | 359 kts | 266° |
| 2026-05-07 15:31 | 40.85645 | -112.65622 | 14844 ft | 361 kts | 266° |
| 2026-05-07 15:31 | 40.85369 | -112.68931 | 15289 ft | 364 kts | 266° |
| 2026-05-07 15:32 | 40.85089 | -112.72264 | 15733 ft | 366 kts | 266° |
| 2026-05-07 15:32 | 40.84809 | -112.75608 | 16171 ft | 368 kts | 266° |
| 2026-05-07 15:32 | 40.84524 | -112.78982 | 16592 ft | 371 kts | 266° |
| 2026-05-07 15:32 | 40.84241 | -112.82378 | 17021 ft | 372 kts | 267° |
| 2026-05-07 15:33 | 40.84168 | -112.85793 | 17450 ft | 373 kts | 273° |
| 2026-05-07 15:33 | 40.84190 | -112.89227 | 17862 ft | 375 kts | 273° |
| 2026-05-07 15:33 | 40.84210 | -112.92680 | 18280 ft | 377 kts | 273° |
| 2026-05-07 15:33 | 40.84225 | -112.96150 | 18624 ft | 379 kts | 273° |
| 2026-05-07 15:34 | 40.84236 | -112.99642 | 18959 ft | 381 kts | 273° |
| 2026-05-07 15:34 | 40.84244 | -113.03152 | 19296 ft | 383 kts | 273° |
| 2026-05-07 15:34 | 40.84251 | -113.06678 | 19652 ft | 385 kts | 273° |
| 2026-05-07 15:34 | 40.84257 | -113.10223 | 19995 ft | 387 kts | 273° |
| 2026-05-07 15:35 | 40.84261 | -113.13785 | 20328 ft | 389 kts | 273° |
| 2026-05-07 15:35 | 40.84263 | -113.17363 | 20659 ft | 391 kts | 273° |
| 2026-05-07 15:35 | 40.84266 | -113.20961 | 20997 ft | 392 kts | 274° |
| 2026-05-07 15:35 | 40.84271 | -113.24572 | 21333 ft | 394 kts | 274° |
| 2026-05-07 15:36 | 40.84275 | -113.28197 | 21664 ft | 396 kts | 274° |
| 2026-05-07 15:36 | 40.84279 | -113.31842 | 21981 ft | 398 kts | 274° |
| 2026-05-07 15:36 | 40.84279 | -113.35505 | 22300 ft | 400 kts | 274° |
| 2026-05-07 15:36 | 40.84279 | -113.39183 | 22628 ft | 402 kts | 274° |
| 2026-05-07 15:37 | 40.84277 | -113.42877 | 22947 ft | 403 kts | 274° |
| 2026-05-07 15:37 | 40.84274 | -113.46594 | 23258 ft | 405 kts | 274° |
| 2026-05-07 15:37 | 40.84270 | -113.50319 | 23569 ft | 407 kts | 274° |
| 2026-05-07 15:37 | 40.84264 | -113.54069 | 23834 ft | 409 kts | 274° |
| 2026-05-07 15:38 | 40.84256 | -113.57830 | 24088 ft | 411 kts | 274° |
| 2026-05-07 15:38 | 40.84247 | -113.61607 | 24353 ft | 412 kts | 274° |
| 2026-05-07 15:38 | 40.84236 | -113.65399 | 24612 ft | 414 kts | 274° |
| 2026-05-07 15:38 | 40.84226 | -113.69205 | 24866 ft | 415 kts | 274° |
| 2026-05-07 15:39 | 40.84213 | -113.73030 | 25117 ft | 417 kts | 274° |
| 2026-05-07 15:39 | 40.84194 | -113.76862 | 25365 ft | 419 kts | 274° |
| 2026-05-07 15:39 | 40.84176 | -113.80715 | 25613 ft | 420 kts | 274° |
| 2026-05-07 15:39 | 40.84161 | -113.84579 | 25859 ft | 422 kts | 274° |
| 2026-05-07 15:40 | 40.84146 | -113.88461 | 26093 ft | 423 kts | 274° |
| 2026-05-07 15:40 | 40.84128 | -113.92353 | 26333 ft | 425 kts | 274° |
| 2026-05-07 15:40 | 40.84107 | -113.96262 | 26571 ft | 427 kts | 274° |
| 2026-05-07 15:40 | 40.84081 | -114.00184 | 26805 ft | 428 kts | 274° |
| 2026-05-07 15:41 | 40.84052 | -114.04126 | 27030 ft | 430 kts | 274° |
| 2026-05-07 15:41 | 40.84021 | -114.08073 | 27243 ft | 431 kts | 274° |
| 2026-05-07 15:41 | 40.83989 | -114.12036 | 27452 ft | 433 kts | 274° |
| 2026-05-07 15:41 | 40.83955 | -114.16019 | 27658 ft | 434 kts | 274° |
| 2026-05-07 15:42 | 40.83921 | -114.20008 | 27858 ft | 435 kts | 274° |
| 2026-05-07 15:42 | 40.83887 | -114.24013 | 28052 ft | 437 kts | 274° |
| 2026-05-07 15:42 | 40.83851 | -114.28030 | 28255 ft | 438 kts | 274° |
| 2026-05-07 15:42 | 40.83814 | -114.32055 | 28456 ft | 440 kts | 274° |
| 2026-05-07 15:43 | 40.83774 | -114.36095 | 28681 ft | 440 kts | 273° |
| 2026-05-07 15:43 | 40.83733 | -114.40135 | 28974 ft | 439 kts | 273° |
| 2026-05-07 15:43 | 40.83694 | -114.44160 | 29244 ft | 439 kts | 273° |
| 2026-05-07 15:43 | 40.83654 | -114.48187 | 29512 ft | 438 kts | 274° |
| 2026-05-07 15:44 | 40.83616 | -114.52204 | 29775 ft | 438 kts | 274° |
| 2026-05-07 15:44 | 40.83575 | -114.56222 | 30034 ft | 437 kts | 273° |
| 2026-05-07 15:44 | 40.83528 | -114.60234 | 30240 ft | 437 kts | 273° |
| 2026-05-07 15:44 | 40.83474 | -114.64246 | 30462 ft | 437 kts | 273° |
| 2026-05-07 15:45 | 40.83416 | -114.68256 | 30683 ft | 436 kts | 273° |
| 2026-05-07 15:45 | 40.83360 | -114.72256 | 30892 ft | 436 kts | 273° |
| 2026-05-07 15:45 | 40.83188 | -114.76260 | 31083 ft | 439 kts | 266° |
| 2026-05-07 15:45 | 40.82748 | -114.80259 | 31277 ft | 440 kts | 266° |
| 2026-05-07 15:46 | 40.81852 | -114.88249 | 31669 ft | 440 kts | 266° |
| 2026-05-07 15:46 | 40.81400 | -114.92243 | 31872 ft | 440 kts | 266° |
| 2026-05-07 15:46 | 40.80947 | -114.96238 | 32047 ft | 440 kts | 266° |
| 2026-05-07 15:47 | 40.80490 | -115.00225 | 32093 ft | 438 kts | 266° |
| 2026-05-07 15:47 | 40.79576 | -115.08148 | 32093 ft | 437 kts | 266° |
| 2026-05-07 15:48 | 40.78663 | -115.16071 | 32093 ft | 437 kts | 266° |
| 2026-05-07 15:48 | 40.77751 | -115.23991 | 32095 ft | 437 kts | 265° |
| 2026-05-07 15:49 | 40.76830 | -115.31917 | 32098 ft | 437 kts | 265° |
| 2026-05-07 15:49 | 40.75893 | -115.39847 | 32116 ft | 437 kts | 265° |
| 2026-05-07 15:50 | 40.74981 | -115.47616 | 32136 ft | 437 kts | 265° |
| 2026-05-07 15:50 | 40.74047 | -115.55534 | 32155 ft | 437 kts | 265° |
| 2026-05-07 15:51 | 40.73099 | -115.63442 | 32171 ft | 437 kts | 265° |
| 2026-05-07 15:51 | 40.72141 | -115.71347 | 32181 ft | 436 kts | 265° |
| 2026-05-07 15:52 | 40.71193 | -115.79244 | 32183 ft | 436 kts | 265° |
| 2026-05-07 15:52 | 40.70238 | -115.87141 | 32170 ft | 436 kts | 265° |
| 2026-05-07 15:53 | 40.69272 | -115.95043 | 32152 ft | 437 kts | 265° |
| 2026-05-07 15:53 | 40.68297 | -116.02948 | 32131 ft | 437 kts | 265° |
| 2026-05-07 15:54 | 40.67320 | -116.10856 | 32110 ft | 437 kts | 265° |
| 2026-05-07 15:54 | 40.66337 | -116.18759 | 32080 ft | 437 kts | 265° |
| 2026-05-07 15:55 | 40.65340 | -116.26664 | 32067 ft | 438 kts | 265° |
| 2026-05-07 15:55 | 40.64339 | -116.34574 | 32063 ft | 438 kts | 265° |
| 2026-05-07 15:56 | 40.63337 | -116.42488 | 32063 ft | 438 kts | 264° |
| 2026-05-07 15:56 | 40.62335 | -116.50400 | 32090 ft | 438 kts | 264° |
| 2026-05-07 15:57 | 40.61324 | -116.58311 | 32114 ft | 439 kts | 264° |
| 2026-05-07 15:57 | 40.60303 | -116.66226 | 32140 ft | 439 kts | 264° |
| 2026-05-07 15:58 | 40.59275 | -116.74146 | 32166 ft | 439 kts | 264° |
| 2026-05-07 15:58 | 40.58247 | -116.82071 | 32175 ft | 440 kts | 264° |
| 2026-05-07 15:59 | 40.57207 | -116.89997 | 32176 ft | 440 kts | 264° |
| 2026-05-07 15:59 | 40.55493 | -116.97762 | 32175 ft | 444 kts | 255° |
| 2026-05-07 16:00 | 40.53486 | -117.05447 | 32143 ft | 445 kts | 255° |
| 2026-05-07 16:00 | 40.51471 | -117.13134 | 32114 ft | 445 kts | 255° |
| 2026-05-07 16:01 | 40.49449 | -117.20826 | 32084 ft | 445 kts | 255° |
| 2026-05-07 16:01 | 40.47424 | -117.28518 | 32050 ft | 446 kts | 255° |
| 2026-05-07 16:02 | 40.45395 | -117.36214 | 32043 ft | 446 kts | 255° |
| 2026-05-07 16:02 | 40.43361 | -117.43906 | 32048 ft | 446 kts | 254° |
| 2026-05-07 16:03 | 40.41324 | -117.51603 | 32042 ft | 446 kts | 254° |
| 2026-05-07 16:03 | 40.39279 | -117.59300 | 32047 ft | 447 kts | 254° |
| 2026-05-07 16:04 | 40.37231 | -117.66987 | 32053 ft | 447 kts | 254° |
| 2026-05-07 16:04 | 40.35172 | -117.74678 | 32052 ft | 447 kts | 254° |
| 2026-05-07 16:05 | 40.33106 | -117.82363 | 32059 ft | 447 kts | 254° |
| 2026-05-07 16:05 | 40.31034 | -117.90062 | 32072 ft | 448 kts | 253° |
| 2026-05-07 16:06 | 40.28952 | -117.97760 | 32074 ft | 448 kts | 253° |
| 2026-05-07 16:06 | 40.26869 | -118.05456 | 32073 ft | 449 kts | 253° |
| 2026-05-07 16:07 | 40.24770 | -118.13156 | 32074 ft | 449 kts | 253° |
| 2026-05-07 16:07 | 40.22670 | -118.20853 | 32082 ft | 449 kts | 253° |
| 2026-05-07 16:08 | 40.20567 | -118.28550 | 32106 ft | 449 kts | 253° |
| 2026-05-07 16:08 | 40.18456 | -118.36250 | 32123 ft | 450 kts | 253° |
| 2026-05-07 16:09 | 40.16343 | -118.43944 | 32145 ft | 450 kts | 253° |
| 2026-05-07 16:09 | 40.14577 | -118.50337 | 32161 ft | 450 kts | 253° |
| 2026-05-07 16:10 | 40.12245 | -118.57939 | 32163 ft | 453 kts | 244° |
| 2026-05-07 16:10 | 40.08702 | -118.64796 | 32162 ft | 456 kts | 237° |
| 2026-05-07 16:11 | 40.05024 | -118.71554 | 32157 ft | 457 kts | 237° |
| 2026-05-07 16:11 | 40.01346 | -118.78324 | 32130 ft | 457 kts | 237° |
| 2026-05-07 16:12 | 39.97656 | -118.85088 | 32108 ft | 457 kts | 237° |
| 2026-05-07 16:12 | 39.93968 | -118.91841 | 32081 ft | 457 kts | 237° |
| 2026-05-07 16:13 | 39.90279 | -118.98588 | 32056 ft | 457 kts | 237° |
| 2026-05-07 16:13 | 39.86581 | -119.05335 | 32054 ft | 458 kts | 237° |
| 2026-05-07 16:14 | 39.82873 | -119.12072 | 32058 ft | 458 kts | 237° |
| 2026-05-07 16:14 | 39.79150 | -119.18802 | 32057 ft | 458 kts | 237° |
| 2026-05-07 16:15 | 39.75432 | -119.25526 | 32062 ft | 458 kts | 236° |
| 2026-05-07 16:15 | 39.71713 | -119.32250 | 32064 ft | 458 kts | 236° |
| 2026-05-07 16:16 | 39.67996 | -119.38965 | 32074 ft | 458 kts | 236° |
| 2026-05-07 16:16 | 39.64275 | -119.45667 | 32112 ft | 458 kts | 236° |
| 2026-05-07 16:17 | 39.60539 | -119.52362 | 32150 ft | 458 kts | 236° |
| 2026-05-07 16:17 | 39.56802 | -119.59046 | 32185 ft | 458 kts | 236° |
| 2026-05-07 16:18 | 39.53097 | -119.65745 | 32214 ft | 456 kts | 240° |
| 2026-05-07 16:18 | 39.49989 | -119.72883 | 32215 ft | 455 kts | 243° |
| 2026-05-07 16:19 | 39.46911 | -119.80042 | 32213 ft | 455 kts | 243° |
| 2026-05-07 16:19 | 39.43828 | -119.87198 | 32206 ft | 455 kts | 243° |
| 2026-05-07 16:20 | 39.40736 | -119.94338 | 32182 ft | 455 kts | 243° |
| 2026-05-07 16:20 | 39.37639 | -120.01474 | 32279 ft | 455 kts | 243° |
| 2026-05-07 16:21 | 39.34542 | -120.08608 | 32299 ft | 455 kts | 243° |
| 2026-05-07 16:21 | 39.31432 | -120.15736 | 32295 ft | 455 kts | 243° |
| 2026-05-07 16:22 | 39.28323 | -120.22857 | 32298 ft | 456 kts | 243° |
| 2026-05-07 16:22 | 39.25202 | -120.29978 | 32260 ft | 456 kts | 242° |
| 2026-05-07 16:23 | 39.22080 | -120.37095 | 32221 ft | 456 kts | 242° |
| 2026-05-07 16:23 | 39.18957 | -120.44209 | 32191 ft | 456 kts | 242° |
| 2026-05-07 16:24 | 39.15822 | -120.51317 | 32208 ft | 456 kts | 242° |
| 2026-05-07 16:24 | 39.12684 | -120.58423 | 32213 ft | 456 kts | 242° |
| 2026-05-07 16:25 | 39.09562 | -120.65479 | 32209 ft | 456 kts | 242° |
| 2026-05-07 16:25 | 39.06393 | -120.72626 | 32190 ft | 457 kts | 242° |
| 2026-05-07 16:26 | 39.03255 | -120.79672 | 32126 ft | 457 kts | 242° |
| 2026-05-07 16:26 | 39.00069 | -120.86813 | 32154 ft | 457 kts | 242° |
| 2026-05-07 16:27 | 38.96923 | -120.93859 | 32177 ft | 458 kts | 242° |
| 2026-05-07 16:27 | 38.93766 | -121.00922 | 32168 ft | 453 kts | 241° |
| 2026-05-07 16:28 | 38.90626 | -121.07924 | 32184 ft | 452 kts | 241° |
| 2026-05-07 16:28 | 38.87485 | -121.14904 | 32186 ft | 451 kts | 241° |
| 2026-05-07 16:29 | 38.84320 | -121.21909 | 32155 ft | 450 kts | 240° |
| 2026-05-07 16:29 | 38.81198 | -121.28809 | 32161 ft | 450 kts | 240° |
| 2026-05-07 16:30 | 38.78059 | -121.35745 | 32156 ft | 450 kts | 240° |
| 2026-05-07 16:30 | 38.74925 | -121.42679 | 32153 ft | 449 kts | 240° |
| 2026-05-07 16:31 | 38.71785 | -121.49591 | 32151 ft | 449 kts | 240° |
| 2026-05-07 16:31 | 38.68639 | -121.56493 | 32149 ft | 449 kts | 240° |
| 2026-05-07 16:32 | 38.65486 | -121.63389 | 32147 ft | 449 kts | 240° |
| 2026-05-07 16:32 | 38.62384 | -121.70167 | 32150 ft | 449 kts | 240° |
| 2026-05-07 16:33 | 38.59225 | -121.77048 | 32162 ft | 449 kts | 240° |
| 2026-05-07 16:33 | 38.56059 | -121.83929 | 32171 ft | 449 kts | 239° |
| 2026-05-07 16:34 | 38.52894 | -121.90801 | 32172 ft | 449 kts | 239° |
| 2026-05-07 16:34 | 38.49727 | -121.97674 | 32163 ft | 449 kts | 239° |
| 2026-05-07 16:35 | 38.46554 | -122.04537 | 32161 ft | 449 kts | 239° |
| 2026-05-07 16:35 | 38.43375 | -122.11401 | 32165 ft | 449 kts | 239° |
| 2026-05-07 16:36 | 38.40197 | -122.18254 | 32164 ft | 449 kts | 239° |
| 2026-05-07 16:36 | 38.37008 | -122.25104 | 32185 ft | 449 kts | 239° |
| 2026-05-07 16:37 | 38.33806 | -122.31940 | 32196 ft | 449 kts | 239° |
| 2026-05-07 16:37 | 38.30610 | -122.38769 | 32193 ft | 449 kts | 240° |
| 2026-05-07 16:38 | 38.27418 | -122.45599 | 32183 ft | 449 kts | 240° |
| 2026-05-07 16:38 | 38.24220 | -122.52419 | 32186 ft | 449 kts | 239° |
| 2026-05-07 16:39 | 38.21014 | -122.59227 | 32190 ft | 448 kts | 239° |
| 2026-05-07 16:39 | 38.17812 | -122.66027 | 32188 ft | 448 kts | 240° |
| 2026-05-07 16:40 | 38.14596 | -122.72813 | 32187 ft | 448 kts | 240° |
| 2026-05-07 16:40 | 38.11383 | -122.79594 | 32186 ft | 448 kts | 240° |
| 2026-05-07 16:41 | 38.08179 | -122.86361 | 32182 ft | 447 kts | 240° |
| 2026-05-07 16:41 | 38.04927 | -122.93083 | 32182 ft | 447 kts | 239° |
| 2026-05-07 16:42 | 38.01625 | -122.99754 | 32185 ft | 446 kts | 239° |
| 2026-05-07 16:42 | 37.98321 | -123.06418 | 32180 ft | 446 kts | 239° |
| 2026-05-07 16:43 | 37.95025 | -123.13079 | 32190 ft | 446 kts | 239° |
| 2026-05-07 16:43 | 37.91735 | -123.19745 | 32191 ft | 446 kts | 239° |
| 2026-05-07 16:44 | 37.88441 | -123.26398 | 32206 ft | 446 kts | 239° |
| 2026-05-07 16:44 | 37.85146 | -123.33043 | 32210 ft | 446 kts | 239° |
| 2026-05-07 16:45 | 37.81849 | -123.39676 | 32207 ft | 445 kts | 239° |
| 2026-05-07 16:45 | 37.78552 | -123.46294 | 32211 ft | 445 kts | 239° |
| 2026-05-07 16:46 | 37.75253 | -123.52900 | 32212 ft | 444 kts | 239° |
| 2026-05-07 16:46 | 37.71950 | -123.59495 | 32213 ft | 444 kts | 239° |
| 2026-05-07 16:47 | 37.68648 | -123.66066 | 32209 ft | 443 kts | 239° |
| 2026-05-07 16:47 | 37.65352 | -123.72625 | 32207 ft | 442 kts | 239° |
| 2026-05-07 16:48 | 37.62060 | -123.79181 | 32210 ft | 442 kts | 238° |
| 2026-05-07 16:48 | 37.58758 | -123.85721 | 32211 ft | 442 kts | 238° |
| 2026-05-07 16:49 | 37.55455 | -123.92246 | 32210 ft | 441 kts | 238° |
| 2026-05-07 16:49 | 37.52154 | -123.98767 | 32213 ft | 441 kts | 238° |
| 2026-05-07 16:50 | 37.48855 | -124.05276 | 32212 ft | 441 kts | 238° |
| 2026-05-07 16:50 | 37.45548 | -124.11775 | 32216 ft | 440 kts | 238° |
| 2026-05-07 16:51 | 37.42241 | -124.18260 | 32217 ft | 440 kts | 238° |
| 2026-05-07 16:51 | 37.38938 | -124.24737 | 32211 ft | 440 kts | 238° |
| 2026-05-07 16:52 | 37.35635 | -124.31212 | 32209 ft | 440 kts | 238° |
| 2026-05-07 16:52 | 37.32889 | -124.36588 | 32217 ft | 440 kts | 238° |
| 2026-05-07 16:53 | 37.29574 | -124.43046 | 32220 ft | 440 kts | 238° |
| 2026-05-07 16:53 | 37.26248 | -124.49495 | 32230 ft | 440 kts | 238° |
| 2026-05-07 16:54 | 37.22931 | -124.55939 | 32228 ft | 439 kts | 238° |
| 2026-05-07 16:54 | 37.19614 | -124.62372 | 32225 ft | 439 kts | 238° |
| 2026-05-07 16:55 | 37.16289 | -124.68795 | 32222 ft | 439 kts | 238° |
| 2026-05-07 16:55 | 37.12965 | -124.75212 | 32225 ft | 439 kts | 238° |
| 2026-05-07 16:56 | 37.09634 | -124.81624 | 32231 ft | 439 kts | 237° |
| 2026-05-07 16:56 | 37.04635 | -124.91219 | 32235 ft | 439 kts | 238° |
| 2026-05-07 16:57 | 37.01302 | -124.97614 | 32235 ft | 438 kts | 238° |
| 2026-05-07 16:57 | 36.98806 | -125.04521 | 32236 ft | 437 kts | 252° |
| 2026-05-07 16:58 | 36.96883 | -125.11731 | 32238 ft | 437 kts | 252° |
| 2026-05-07 16:58 | 36.94942 | -125.18930 | 32240 ft | 437 kts | 252° |
| 2026-05-07 16:59 | 36.92989 | -125.26120 | 32241 ft | 437 kts | 252° |
| 2026-05-07 16:59 | 36.91034 | -125.33311 | 32250 ft | 437 kts | 252° |
| 2026-05-07 17:00 | 36.89079 | -125.40496 | 32246 ft | 437 kts | 252° |
| 2026-05-07 17:00 | 36.87117 | -125.47679 | 32248 ft | 437 kts | 252° |
| 2026-05-07 17:01 | 36.85151 | -125.54859 | 32253 ft | 437 kts | 252° |
| 2026-05-07 17:01 | 36.83183 | -125.62038 | 32255 ft | 437 kts | 252° |
| 2026-05-07 17:02 | 36.81202 | -125.69212 | 32251 ft | 437 kts | 252° |
| 2026-05-07 17:02 | 36.79222 | -125.76379 | 32260 ft | 437 kts | 252° |
| 2026-05-07 17:03 | 36.77247 | -125.83552 | 32258 ft | 437 kts | 252° |
| 2026-05-07 17:03 | 36.75261 | -125.90723 | 32259 ft | 438 kts | 252° |
| 2026-05-07 17:04 | 36.73271 | -125.97898 | 32261 ft | 438 kts | 252° |
| 2026-05-07 17:04 | 36.71273 | -126.05071 | 32260 ft | 438 kts | 252° |
| 2026-05-07 17:05 | 36.69260 | -126.12244 | 32257 ft | 438 kts | 252° |
| 2026-05-07 17:05 | 36.67241 | -126.19416 | 32263 ft | 439 kts | 252° |
| 2026-05-07 17:06 | 36.65218 | -126.26588 | 32267 ft | 439 kts | 252° |
| 2026-05-07 17:06 | 36.63193 | -126.33762 | 32269 ft | 439 kts | 253° |
| 2026-05-07 17:07 | 36.61175 | -126.40936 | 32267 ft | 439 kts | 253° |
| 2026-05-07 17:07 | 36.59143 | -126.48106 | 32268 ft | 439 kts | 253° |
| 2026-05-07 17:08 | 36.57102 | -126.55274 | 32271 ft | 439 kts | 253° |
| 2026-05-07 17:08 | 36.55063 | -126.62440 | 32271 ft | 439 kts | 253° |
| 2026-05-07 17:09 | 36.53018 | -126.69600 | 32274 ft | 440 kts | 253° |
| 2026-05-07 17:09 | 36.50965 | -126.76761 | 32273 ft | 440 kts | 253° |
| 2026-05-07 17:10 | 36.48912 | -126.83912 | 32272 ft | 440 kts | 253° |
| 2026-05-07 17:10 | 36.46855 | -126.91069 | 32271 ft | 440 kts | 253° |
| 2026-05-07 17:11 | 36.44790 | -126.98223 | 32273 ft | 440 kts | 253° |
| 2026-05-07 17:11 | 36.42718 | -127.05369 | 32271 ft | 440 kts | 253° |
| 2026-05-07 17:12 | 36.40639 | -127.12518 | 32269 ft | 440 kts | 253° |
| 2026-05-07 17:12 | 36.38556 | -127.19658 | 32273 ft | 440 kts | 253° |
| 2026-05-07 17:13 | 36.36472 | -127.26802 | 32276 ft | 440 kts | 253° |
| 2026-05-07 17:13 | 36.34377 | -127.33940 | 32276 ft | 440 kts | 253° |
| 2026-05-07 17:14 | 36.32293 | -127.41034 | 32277 ft | 440 kts | 253° |
| 2026-05-07 17:14 | 36.30195 | -127.48168 | 32277 ft | 440 kts | 253° |
| 2026-05-07 17:15 | 36.28093 | -127.55292 | 32277 ft | 440 kts | 253° |
| 2026-05-07 17:15 | 36.25991 | -127.62418 | 32282 ft | 440 kts | 253° |
| 2026-05-07 17:16 | 36.23880 | -127.69534 | 32279 ft | 440 kts | 253° |
| 2026-05-07 17:16 | 36.21753 | -127.76642 | 32283 ft | 440 kts | 253° |
| 2026-05-07 17:17 | 36.19630 | -127.83747 | 32280 ft | 440 kts | 253° |
| 2026-05-07 17:17 | 36.17511 | -127.90856 | 32282 ft | 440 kts | 253° |
| 2026-05-07 17:18 | 36.15373 | -127.98002 | 32280 ft | 440 kts | 253° |
| 2026-05-07 17:18 | 36.13241 | -128.05088 | 32281 ft | 440 kts | 253° |
| 2026-05-07 17:19 | 36.11104 | -128.12174 | 32287 ft | 440 kts | 253° |
| 2026-05-07 17:19 | 36.08965 | -128.19256 | 32278 ft | 440 kts | 253° |
| 2026-05-07 17:20 | 36.06843 | -128.26286 | 32283 ft | 439 kts | 252° |
| 2026-05-07 17:20 | 36.04699 | -128.33360 | 32284 ft | 440 kts | 252° |
| 2026-05-07 17:21 | 36.02526 | -128.40474 | 32282 ft | 440 kts | 252° |
| 2026-05-07 17:21 | 36.00386 | -128.47503 | 32292 ft | 440 kts | 252° |
| 2026-05-07 17:22 | 35.98213 | -128.54625 | 32296 ft | 440 kts | 252° |
| 2026-05-07 17:22 | 35.96052 | -128.61641 | 32287 ft | 440 kts | 252° |
| 2026-05-07 17:23 | 35.93857 | -128.68773 | 32401 ft | 444 kts | 252° |
| 2026-05-07 17:23 | 35.92776 | -128.72293 | 32545 ft | 446 kts | 252° |
| 2026-05-07 17:23 | 35.91679 | -128.75870 | 32746 ft | 446 kts | 252° |
| 2026-05-07 17:24 | 35.90562 | -128.79493 | 32973 ft | 446 kts | 252° |
| 2026-05-07 17:24 | 35.89457 | -128.83067 | 33218 ft | 446 kts | 252° |
| 2026-05-07 17:24 | 35.88351 | -128.86634 | 33455 ft | 445 kts | 252° |
| 2026-05-07 17:24 | 35.87244 | -128.90195 | 33692 ft | 445 kts | 252° |
| 2026-05-07 17:25 | 35.86135 | -128.93754 | 33925 ft | 444 kts | 252° |
| 2026-05-07 17:25 | 35.85029 | -128.97307 | 34156 ft | 444 kts | 252° |
| 2026-05-07 17:25 | 35.83923 | -129.00859 | 34286 ft | 444 kts | 252° |
| 2026-05-07 17:25 | 35.82817 | -129.04407 | 34301 ft | 443 kts | 252° |
| 2026-05-07 17:26 | 35.80614 | -129.11501 | 34301 ft | 443 kts | 252° |
| 2026-05-07 17:26 | 35.78410 | -129.18586 | 34298 ft | 443 kts | 252° |
| 2026-05-07 17:27 | 35.76185 | -129.25658 | 34303 ft | 443 kts | 252° |
| 2026-05-07 17:27 | 35.73951 | -129.32730 | 34301 ft | 443 kts | 252° |
| 2026-05-07 17:28 | 35.71734 | -129.39805 | 34305 ft | 443 kts | 252° |
| 2026-05-07 17:28 | 35.69504 | -129.46872 | 34303 ft | 443 kts | 252° |
| 2026-05-07 17:29 | 35.67270 | -129.53930 | 34309 ft | 443 kts | 252° |
| 2026-05-07 17:29 | 35.65035 | -129.60982 | 34310 ft | 443 kts | 252° |
| 2026-05-07 17:30 | 35.62794 | -129.68029 | 34308 ft | 442 kts | 252° |
| 2026-05-07 17:30 | 35.60549 | -129.75068 | 34310 ft | 442 kts | 252° |
| 2026-05-07 17:31 | 35.58304 | -129.82104 | 34308 ft | 442 kts | 252° |
| 2026-05-07 17:31 | 35.56055 | -129.89130 | 34305 ft | 442 kts | 252° |
| 2026-05-07 17:32 | 35.53796 | -129.96158 | 34312 ft | 442 kts | 252° |
| 2026-05-07 17:32 | 35.51915 | -130.01991 | 34312 ft | 442 kts | 252° |
| 2026-05-07 17:33 | 35.49277 | -130.10200 | 34317 ft | 442 kts | 252° |
| 2026-05-07 17:33 | 35.47396 | -130.16033 | 34316 ft | 442 kts | 252° |
| 2026-05-07 17:34 | 35.45123 | -130.23038 | 34315 ft | 442 kts | 251° |
| 2026-05-07 17:34 | 35.42842 | -130.30035 | 34322 ft | 442 kts | 251° |
| 2026-05-07 17:35 | 35.40565 | -130.37022 | 34311 ft | 441 kts | 251° |
| 2026-05-07 17:35 | 35.38293 | -130.44000 | 34319 ft | 441 kts | 251° |
| 2026-05-07 17:36 | 35.36019 | -130.50976 | 34313 ft | 441 kts | 251° |
| 2026-05-07 17:36 | 35.33730 | -130.57942 | 34310 ft | 441 kts | 251° |
| 2026-05-07 17:37 | 35.31443 | -130.64902 | 34315 ft | 440 kts | 251° |
| 2026-05-07 17:37 | 35.29157 | -130.71857 | 34313 ft | 440 kts | 251° |
| 2026-05-07 17:38 | 35.26860 | -130.78807 | 34308 ft | 440 kts | 251° |
| 2026-05-07 17:38 | 35.24558 | -130.85754 | 34304 ft | 440 kts | 251° |
| 2026-05-07 17:39 | 35.22260 | -130.92700 | 34303 ft | 440 kts | 251° |
| 2026-05-07 17:39 | 35.19962 | -130.99646 | 34303 ft | 441 kts | 251° |
| 2026-05-07 17:40 | 35.17651 | -131.06583 | 34299 ft | 441 kts | 251° |
| 2026-05-07 17:40 | 35.15332 | -131.13516 | 34300 ft | 441 kts | 251° |
| 2026-05-07 17:41 | 35.13007 | -131.20453 | 34295 ft | 441 kts | 250° |
| 2026-05-07 17:41 | 35.10677 | -131.27384 | 34290 ft | 441 kts | 250° |
| 2026-05-07 17:42 | 35.08348 | -131.34321 | 34293 ft | 441 kts | 250° |
| 2026-05-07 17:42 | 35.06014 | -131.41251 | 34288 ft | 442 kts | 250° |
| 2026-05-07 17:43 | 35.03672 | -131.48180 | 34292 ft | 442 kts | 250° |
| 2026-05-07 17:43 | 35.01331 | -131.55113 | 34292 ft | 442 kts | 250° |
| 2026-05-07 17:44 | 34.98986 | -131.62039 | 34294 ft | 442 kts | 250° |
| 2026-05-07 17:44 | 34.96636 | -131.68961 | 34293 ft | 442 kts | 250° |
| 2026-05-07 17:45 | 34.94280 | -131.75871 | 34296 ft | 442 kts | 250° |
| 2026-05-07 17:45 | 34.91921 | -131.82779 | 34299 ft | 441 kts | 249° |
| 2026-05-07 17:46 | 34.89558 | -131.89680 | 34299 ft | 441 kts | 250° |
| 2026-05-07 17:46 | 34.87195 | -131.96570 | 34296 ft | 441 kts | 250° |
| 2026-05-07 17:47 | 34.84832 | -132.03456 | 34299 ft | 440 kts | 249° |
| 2026-05-07 17:47 | 34.82467 | -132.10324 | 34300 ft | 440 kts | 249° |
| 2026-05-07 17:48 | 34.80097 | -132.17187 | 34303 ft | 440 kts | 249° |
| 2026-05-07 17:48 | 34.77725 | -132.24037 | 34303 ft | 439 kts | 249° |
| 2026-05-07 17:49 | 34.75349 | -132.30876 | 34305 ft | 439 kts | 249° |
| 2026-05-07 17:49 | 34.72978 | -132.37704 | 34298 ft | 438 kts | 249° |
| 2026-05-07 17:50 | 34.70603 | -132.44526 | 34295 ft | 438 kts | 249° |
| 2026-05-07 17:50 | 34.68225 | -132.51341 | 34294 ft | 438 kts | 249° |
| 2026-05-07 17:51 | 34.65844 | -132.58147 | 34289 ft | 438 kts | 249° |
| 2026-05-07 17:51 | 34.63453 | -132.64944 | 34289 ft | 438 kts | 249° |
| 2026-05-07 17:52 | 34.61065 | -132.71741 | 34283 ft | 438 kts | 249° |
| 2026-05-07 17:52 | 34.58677 | -132.78541 | 34282 ft | 438 kts | 248° |
| 2026-05-07 17:53 | 34.56284 | -132.85330 | 34282 ft | 438 kts | 248° |
| 2026-05-07 17:53 | 34.53886 | -132.92113 | 34279 ft | 438 kts | 248° |
| 2026-05-07 17:54 | 34.51484 | -132.98894 | 34279 ft | 438 kts | 248° |
| 2026-05-07 17:54 | 34.49086 | -133.05671 | 34280 ft | 437 kts | 248° |
| 2026-05-07 17:55 | 34.46673 | -133.12441 | 34276 ft | 437 kts | 248° |
| 2026-05-07 17:55 | 34.44256 | -133.19206 | 34273 ft | 437 kts | 248° |
| 2026-05-07 17:56 | 34.41834 | -133.25969 | 34273 ft | 437 kts | 248° |
| 2026-05-07 17:56 | 34.39414 | -133.32727 | 34272 ft | 437 kts | 248° |
| 2026-05-07 17:57 | 34.37403 | -133.38340 | 34275 ft | 437 kts | 248° |
| 2026-05-07 17:57 | 34.34573 | -133.46223 | 34281 ft | 437 kts | 248° |
| 2026-05-07 17:58 | 34.32153 | -133.52963 | 34275 ft | 436 kts | 247° |
| 2026-05-07 17:58 | 34.29720 | -133.59684 | 34279 ft | 436 kts | 247° |
| 2026-05-07 17:59 | 34.27288 | -133.66387 | 34282 ft | 435 kts | 247° |
| 2026-05-07 17:59 | 34.24859 | -133.73080 | 34279 ft | 434 kts | 247° |
| 2026-05-07 18:00 | 34.22436 | -133.79757 | 34285 ft | 433 kts | 247° |
| 2026-05-07 18:00 | 34.20015 | -133.86424 | 34284 ft | 433 kts | 247° |
| 2026-05-07 18:01 | 34.17586 | -133.93070 | 34284 ft | 432 kts | 247° |
| 2026-05-07 18:01 | 34.15155 | -133.99702 | 34279 ft | 432 kts | 247° |
| 2026-05-07 18:02 | 34.11513 | -134.09650 | 34274 ft | 432 kts | 246° |
| 2026-05-07 18:03 | 34.09076 | -134.16270 | 34276 ft | 432 kts | 246° |
| 2026-05-07 18:03 | 34.06646 | -134.22887 | 34274 ft | 431 kts | 246° |
| 2026-05-07 18:04 | 34.04211 | -134.29497 | 34272 ft | 431 kts | 246° |
| 2026-05-07 18:04 | 34.01786 | -134.36061 | 34268 ft | 431 kts | 246° |
| 2026-05-07 18:05 | 33.99343 | -134.42655 | 34269 ft | 431 kts | 246° |
| 2026-05-07 18:05 | 33.96893 | -134.49248 | 34272 ft | 431 kts | 246° |
| 2026-05-07 18:06 | 33.94446 | -134.55826 | 34275 ft | 430 kts | 246° |
| 2026-05-07 18:06 | 33.91999 | -134.62400 | 34276 ft | 430 kts | 246° |
| 2026-05-07 18:07 | 33.89549 | -134.68965 | 34279 ft | 430 kts | 246° |
| 2026-05-07 18:07 | 33.87100 | -134.75524 | 34273 ft | 429 kts | 246° |
| 2026-05-07 18:08 | 33.84652 | -134.82075 | 34275 ft | 429 kts | 246° |
| 2026-05-07 18:08 | 33.82201 | -134.88610 | 34270 ft | 429 kts | 246° |
| 2026-05-07 18:09 | 33.79743 | -134.95139 | 34275 ft | 428 kts | 246° |
| 2026-05-07 18:09 | 33.77288 | -135.01654 | 34279 ft | 428 kts | 246° |
| 2026-05-07 18:10 | 33.74831 | -135.08162 | 34273 ft | 427 kts | 246° |
| 2026-05-07 18:10 | 33.72372 | -135.14659 | 34272 ft | 427 kts | 246° |
| 2026-05-07 18:11 | 33.69910 | -135.21154 | 34268 ft | 427 kts | 246° |
| 2026-05-07 18:11 | 33.67443 | -135.27639 | 34266 ft | 427 kts | 246° |
| 2026-05-07 18:12 | 33.65021 | -135.34010 | 34268 ft | 427 kts | 246° |
| 2026-05-07 18:12 | 33.62555 | -135.40485 | 34269 ft | 427 kts | 245° |
| 2026-05-07 18:13 | 33.60085 | -135.46957 | 34266 ft | 427 kts | 245° |
| 2026-05-07 18:13 | 33.57606 | -135.53425 | 34270 ft | 427 kts | 245° |
| 2026-05-07 18:14 | 33.55127 | -135.59886 | 34267 ft | 427 kts | 245° |
| 2026-05-07 18:14 | 33.52647 | -135.66349 | 34257 ft | 427 kts | 245° |
| 2026-05-07 18:15 | 33.50162 | -135.72808 | 34267 ft | 427 kts | 245° |
| 2026-05-07 18:15 | 33.47672 | -135.79257 | 34270 ft | 427 kts | 245° |
| 2026-05-07 18:16 | 33.45184 | -135.85708 | 34260 ft | 427 kts | 245° |
| 2026-05-07 18:16 | 33.43108 | -135.91065 | 34268 ft | 427 kts | 245° |
| 2026-05-07 18:17 | 33.40605 | -135.97509 | 34264 ft | 427 kts | 245° |
| 2026-05-07 18:17 | 33.38108 | -136.03947 | 34268 ft | 426 kts | 245° |
| 2026-05-07 18:18 | 33.35608 | -136.10377 | 34263 ft | 426 kts | 245° |
| 2026-05-07 18:18 | 33.33101 | -136.16798 | 34271 ft | 426 kts | 245° |
| 2026-05-07 18:19 | 33.30591 | -136.23216 | 34273 ft | 426 kts | 245° |
| 2026-05-07 18:19 | 33.28079 | -136.29629 | 34257 ft | 426 kts | 245° |
| 2026-05-07 18:20 | 33.25569 | -136.36040 | 34271 ft | 426 kts | 245° |
| 2026-05-07 18:20 | 33.23057 | -136.42441 | 34259 ft | 426 kts | 245° |
| 2026-05-07 18:21 | 33.20538 | -136.48839 | 34263 ft | 425 kts | 245° |
| 2026-05-07 18:21 | 33.18017 | -136.55227 | 34264 ft | 425 kts | 245° |
| 2026-05-07 18:22 | 33.15491 | -136.61615 | 34269 ft | 425 kts | 245° |
| 2026-05-07 18:22 | 33.12969 | -136.67999 | 34268 ft | 425 kts | 245° |
| 2026-05-07 18:23 | 33.10439 | -136.74366 | 34270 ft | 425 kts | 245° |
| 2026-05-07 18:23 | 33.07910 | -136.80730 | 34268 ft | 425 kts | 245° |
| 2026-05-07 18:24 | 33.05380 | -136.87087 | 34261 ft | 424 kts | 244° |
| 2026-05-07 18:24 | 33.02842 | -136.93433 | 34264 ft | 424 kts | 244° |
| 2026-05-07 18:25 | 33.00308 | -136.99779 | 34258 ft | 424 kts | 244° |
| 2026-05-07 18:25 | 32.97775 | -137.06117 | 34263 ft | 424 kts | 244° |
| 2026-05-07 18:26 | 32.95238 | -137.12462 | 34264 ft | 424 kts | 244° |
| 2026-05-07 18:26 | 32.92698 | -137.18791 | 34273 ft | 424 kts | 244° |
| 2026-05-07 18:27 | 32.90151 | -137.25110 | 34269 ft | 423 kts | 244° |
| 2026-05-07 18:27 | 32.87600 | -137.31418 | 34256 ft | 423 kts | 244° |
| 2026-05-07 18:28 | 32.85057 | -137.37724 | 34264 ft | 423 kts | 244° |
| 2026-05-07 18:28 | 32.82516 | -137.44028 | 34253 ft | 423 kts | 244° |
| 2026-05-07 18:29 | 32.79961 | -137.50320 | 34270 ft | 423 kts | 244° |
| 2026-05-07 18:29 | 32.77399 | -137.56603 | 34266 ft | 422 kts | 244° |
| 2026-05-07 18:30 | 32.74842 | -137.62882 | 34259 ft | 422 kts | 244° |
| 2026-05-07 18:30 | 32.72289 | -137.69163 | 34253 ft | 422 kts | 244° |
| 2026-05-07 18:31 | 32.69733 | -137.75428 | 34258 ft | 422 kts | 244° |
| 2026-05-07 18:31 | 32.67170 | -137.81689 | 34254 ft | 421 kts | 244° |
| 2026-05-07 18:32 | 32.64604 | -137.87942 | 34267 ft | 421 kts | 244° |
| 2026-05-07 18:32 | 32.62039 | -137.94190 | 34259 ft | 421 kts | 244° |
| 2026-05-07 18:33 | 32.59512 | -138.00341 | 34256 ft | 421 kts | 244° |
| 2026-05-07 18:33 | 32.56946 | -138.06572 | 34261 ft | 421 kts | 244° |
| 2026-05-07 18:34 | 32.54376 | -138.12801 | 34261 ft | 421 kts | 244° |
| 2026-05-07 18:34 | 32.51798 | -138.19020 | 34256 ft | 420 kts | 244° |
| 2026-05-07 18:35 | 32.49223 | -138.25231 | 34253 ft | 420 kts | 244° |
| 2026-05-07 18:35 | 32.46654 | -138.31434 | 34252 ft | 419 kts | 244° |
| 2026-05-07 18:36 | 32.44079 | -138.37633 | 34247 ft | 419 kts | 244° |
| 2026-05-07 18:36 | 32.41498 | -138.43825 | 34241 ft | 419 kts | 244° |
| 2026-05-07 18:37 | 32.38916 | -138.50010 | 34243 ft | 419 kts | 244° |
| 2026-05-07 18:37 | 32.36332 | -138.56195 | 34251 ft | 419 kts | 244° |
| 2026-05-07 18:38 | 32.33742 | -138.62378 | 34251 ft | 420 kts | 244° |
| 2026-05-07 18:38 | 32.31159 | -138.68565 | 34252 ft | 420 kts | 244° |
| 2026-05-07 18:39 | 32.28567 | -138.74744 | 34251 ft | 419 kts | 244° |
| 2026-05-07 18:39 | 32.25967 | -138.80913 | 34250 ft | 419 kts | 244° |
| 2026-05-07 18:40 | 32.23369 | -138.87075 | 34251 ft | 419 kts | 244° |
| 2026-05-07 18:40 | 32.20769 | -138.93227 | 34248 ft | 419 kts | 244° |
| 2026-05-07 18:41 | 32.18167 | -138.99371 | 34244 ft | 418 kts | 244° |
| 2026-05-07 18:41 | 32.15561 | -139.05514 | 34245 ft | 418 kts | 244° |
| 2026-05-07 18:42 | 32.12956 | -139.11645 | 34245 ft | 418 kts | 244° |
| 2026-05-07 18:42 | 32.10358 | -139.17782 | 34241 ft | 418 kts | 244° |
| 2026-05-07 18:43 | 32.07760 | -139.23903 | 34241 ft | 417 kts | 244° |
| 2026-05-07 18:43 | 32.05154 | -139.30016 | 34242 ft | 417 kts | 244° |
| 2026-05-07 18:44 | 32.02536 | -139.36124 | 34229 ft | 417 kts | 244° |
| 2026-05-07 18:44 | 31.99923 | -139.42225 | 34237 ft | 417 kts | 244° |
| 2026-05-07 18:45 | 31.97310 | -139.48321 | 34231 ft | 417 kts | 244° |
| 2026-05-07 18:45 | 31.94693 | -139.54414 | 34224 ft | 416 kts | 244° |
| 2026-05-07 18:46 | 31.92082 | -139.60499 | 34226 ft | 416 kts | 244° |
| 2026-05-07 18:46 | 31.89462 | -139.66565 | 34224 ft | 416 kts | 244° |
| 2026-05-07 18:47 | 31.86841 | -139.72633 | 34221 ft | 416 kts | 244° |
| 2026-05-07 18:47 | 31.84219 | -139.78697 | 34227 ft | 416 kts | 244° |
| 2026-05-07 18:48 | 31.81601 | -139.84760 | 34222 ft | 416 kts | 244° |
| 2026-05-07 18:48 | 31.78974 | -139.90815 | 34214 ft | 416 kts | 244° |
| 2026-05-07 18:49 | 31.76341 | -139.96861 | 34224 ft | 416 kts | 244° |
| 2026-05-07 18:49 | 31.73706 | -140.02911 | 34219 ft | 416 kts | 244° |
| 2026-05-07 18:50 | 31.71075 | -140.08960 | 34210 ft | 416 kts | 244° |
| 2026-05-07 18:50 | 31.68440 | -140.15008 | 34214 ft | 416 kts | 244° |
| 2026-05-07 18:51 | 31.65798 | -140.21051 | 34222 ft | 416 kts | 244° |
| 2026-05-07 18:51 | 31.63143 | -140.27088 | 34215 ft | 416 kts | 244° |
| 2026-05-07 18:52 | 31.60491 | -140.33124 | 34223 ft | 416 kts | 244° |
| 2026-05-07 18:52 | 31.57839 | -140.39162 | 34220 ft | 416 kts | 244° |
| 2026-05-07 18:53 | 31.55187 | -140.45200 | 34219 ft | 417 kts | 244° |
| 2026-05-07 18:53 | 31.52527 | -140.51231 | 34217 ft | 417 kts | 244° |
| 2026-05-07 18:54 | 31.49862 | -140.57266 | 34221 ft | 417 kts | 244° |
| 2026-05-07 18:54 | 31.47194 | -140.63298 | 34212 ft | 417 kts | 244° |
| 2026-05-07 18:55 | 31.44519 | -140.69328 | 34218 ft | 417 kts | 244° |
| 2026-05-07 18:55 | 31.41856 | -140.75322 | 34218 ft | 418 kts | 244° |
| 2026-05-07 18:56 | 31.39180 | -140.81355 | 34204 ft | 418 kts | 244° |
| 2026-05-07 18:56 | 31.36496 | -140.87391 | 34204 ft | 418 kts | 244° |
| 2026-05-07 18:57 | 31.33801 | -140.93429 | 34212 ft | 419 kts | 244° |
| 2026-05-07 18:57 | 31.31102 | -140.99463 | 34206 ft | 419 kts | 244° |
| 2026-05-07 18:58 | 31.28399 | -141.05501 | 34207 ft | 419 kts | 244° |
| 2026-05-07 18:58 | 31.26131 | -141.10560 | 34206 ft | 419 kts | 244° |
| 2026-05-07 18:59 | 31.23415 | -141.16601 | 34207 ft | 420 kts | 244° |
| 2026-05-07 18:59 | 31.20702 | -141.22643 | 34209 ft | 420 kts | 244° |
| 2026-05-07 19:00 | 31.17981 | -141.28685 | 34210 ft | 420 kts | 244° |
| 2026-05-07 19:00 | 31.15278 | -141.34687 | 34209 ft | 421 kts | 244° |
| 2026-05-07 19:01 | 31.12547 | -141.40729 | 34209 ft | 421 kts | 244° |
| 2026-05-07 19:01 | 31.09807 | -141.46770 | 34207 ft | 421 kts | 244° |
| 2026-05-07 19:02 | 31.07070 | -141.52809 | 34212 ft | 421 kts | 244° |
| 2026-05-07 19:02 | 31.04325 | -141.58849 | 34212 ft | 421 kts | 244° |
| 2026-05-07 19:03 | 31.01577 | -141.64885 | 34209 ft | 422 kts | 244° |
| 2026-05-07 19:03 | 30.98831 | -141.70923 | 34210 ft | 422 kts | 244° |
| 2026-05-07 19:04 | 30.96074 | -141.76962 | 34209 ft | 422 kts | 244° |
| 2026-05-07 19:04 | 30.93313 | -141.82991 | 34203 ft | 422 kts | 244° |
| 2026-05-07 19:05 | 30.90543 | -141.89023 | 34201 ft | 422 kts | 244° |
| 2026-05-07 19:05 | 30.87779 | -141.95056 | 34202 ft | 422 kts | 244° |
| 2026-05-07 19:06 | 30.85012 | -142.01089 | 34211 ft | 423 kts | 244° |
| 2026-05-07 19:06 | 30.80849 | -142.10135 | 34203 ft | 423 kts | 244° |
| 2026-05-07 19:07 | 30.78061 | -142.16166 | 34198 ft | 423 kts | 244° |
| 2026-05-07 19:07 | 30.75260 | -142.22242 | 34200 ft | 424 kts | 244° |
| 2026-05-07 19:08 | 30.72471 | -142.28274 | 34196 ft | 424 kts | 244° |
| 2026-05-07 19:08 | 30.69680 | -142.34270 | 34192 ft | 424 kts | 244° |
| 2026-05-07 19:09 | 30.66850 | -142.40343 | 34187 ft | 425 kts | 244° |
| 2026-05-07 19:09 | 30.64046 | -142.46390 | 34190 ft | 425 kts | 244° |
| 2026-05-07 19:10 | 30.61259 | -142.52396 | 34191 ft | 426 kts | 244° |
| 2026-05-07 19:10 | 30.58444 | -142.58441 | 34188 ft | 426 kts | 244° |
| 2026-05-07 19:11 | 30.55619 | -142.64480 | 34186 ft | 426 kts | 244° |
| 2026-05-07 19:11 | 30.52788 | -142.70526 | 34187 ft | 426 kts | 244° |
| 2026-05-07 19:12 | 30.49957 | -142.76568 | 34189 ft | 427 kts | 244° |
| 2026-05-07 19:12 | 30.47116 | -142.82609 | 34183 ft | 427 kts | 244° |
| 2026-05-07 19:13 | 30.44276 | -142.88648 | 34184 ft | 427 kts | 244° |
| 2026-05-07 19:13 | 30.41437 | -142.94687 | 34184 ft | 427 kts | 244° |
| 2026-05-07 19:14 | 30.38587 | -143.00721 | 34180 ft | 427 kts | 244° |
| 2026-05-07 19:14 | 30.35739 | -143.06747 | 34184 ft | 427 kts | 244° |
| 2026-05-07 19:15 | 30.32888 | -143.12779 | 34185 ft | 427 kts | 244° |
| 2026-05-07 19:15 | 30.30028 | -143.18809 | 34186 ft | 427 kts | 244° |
| 2026-05-07 19:16 | 30.27171 | -143.24837 | 34189 ft | 427 kts | 244° |
| 2026-05-07 19:16 | 30.24306 | -143.30867 | 34193 ft | 428 kts | 244° |
| 2026-05-07 19:17 | 30.21422 | -143.36929 | 34191 ft | 428 kts | 244° |
| 2026-05-07 19:17 | 30.18553 | -143.42955 | 34191 ft | 428 kts | 244° |
| 2026-05-07 19:18 | 30.15674 | -143.48976 | 34191 ft | 428 kts | 243° |
| 2026-05-07 19:18 | 30.12791 | -143.54989 | 34187 ft | 428 kts | 244° |
| 2026-05-07 19:19 | 30.09914 | -143.61004 | 34183 ft | 428 kts | 244° |
| 2026-05-07 19:19 | 30.07038 | -143.67016 | 34190 ft | 428 kts | 244° |
| 2026-05-07 19:20 | 30.04174 | -143.72984 | 34185 ft | 428 kts | 243° |
| 2026-05-07 19:20 | 30.01264 | -143.79023 | 34181 ft | 428 kts | 243° |
| 2026-05-07 19:21 | 29.98371 | -143.85021 | 34186 ft | 428 kts | 243° |
| 2026-05-07 19:21 | 29.95479 | -143.91023 | 34182 ft | 428 kts | 243° |
| 2026-05-07 19:22 | 29.92589 | -143.97015 | 34175 ft | 428 kts | 243° |
| 2026-05-07 19:22 | 29.89711 | -144.02973 | 34173 ft | 428 kts | 243° |
| 2026-05-07 19:23 | 29.86782 | -144.09007 | 34181 ft | 429 kts | 243° |
| 2026-05-07 19:23 | 29.83861 | -144.15001 | 34186 ft | 429 kts | 243° |
| 2026-05-07 19:24 | 29.80945 | -144.21002 | 34179 ft | 429 kts | 243° |
| 2026-05-07 19:24 | 29.78030 | -144.26998 | 34188 ft | 430 kts | 243° |
| 2026-05-07 19:25 | 29.75096 | -144.32995 | 34186 ft | 430 kts | 243° |
| 2026-05-07 19:25 | 29.72187 | -144.38948 | 34187 ft | 430 kts | 243° |
| 2026-05-07 19:26 | 29.69256 | -144.44946 | 34186 ft | 430 kts | 243° |
| 2026-05-07 19:26 | 29.66320 | -144.50937 | 34187 ft | 430 kts | 243° |
| 2026-05-07 19:27 | 29.63380 | -144.56919 | 34191 ft | 430 kts | 243° |
| 2026-05-07 19:27 | 29.60440 | -144.62904 | 34189 ft | 430 kts | 243° |
| 2026-05-07 19:28 | 29.57498 | -144.68886 | 34186 ft | 430 kts | 243° |
| 2026-05-07 19:28 | 29.54557 | -144.74860 | 34190 ft | 430 kts | 243° |
| 2026-05-07 19:29 | 29.51606 | -144.80831 | 34189 ft | 430 kts | 243° |
| 2026-05-07 19:29 | 29.48656 | -144.86807 | 34184 ft | 430 kts | 243° |
| 2026-05-07 19:30 | 29.45705 | -144.92776 | 34186 ft | 430 kts | 243° |
| 2026-05-07 19:30 | 29.42740 | -144.98742 | 34186 ft | 430 kts | 242° |
| 2026-05-07 19:31 | 29.39775 | -145.04705 | 34187 ft | 431 kts | 243° |
| 2026-05-07 19:31 | 29.36808 | -145.10669 | 34188 ft | 430 kts | 242° |
| 2026-05-07 19:32 | 29.33840 | -145.16628 | 34188 ft | 430 kts | 242° |
| 2026-05-07 19:32 | 29.30865 | -145.22579 | 34194 ft | 430 kts | 242° |
| 2026-05-07 19:33 | 29.27894 | -145.28529 | 34194 ft | 430 kts | 242° |
| 2026-05-07 19:33 | 29.24932 | -145.34473 | 34189 ft | 430 kts | 242° |
| 2026-05-07 19:34 | 29.21958 | -145.40409 | 34189 ft | 430 kts | 242° |
| 2026-05-07 19:34 | 29.18981 | -145.46340 | 34186 ft | 430 kts | 242° |
| 2026-05-07 19:35 | 29.16000 | -145.52271 | 34185 ft | 430 kts | 242° |
| 2026-05-07 19:35 | 29.13015 | -145.58204 | 34185 ft | 430 kts | 242° |
| 2026-05-07 19:36 | 29.10026 | -145.64128 | 34185 ft | 430 kts | 242° |
| 2026-05-07 19:36 | 29.07034 | -145.70047 | 34181 ft | 430 kts | 242° |
| 2026-05-07 19:37 | 29.04047 | -145.75972 | 34184 ft | 430 kts | 242° |
| 2026-05-07 19:37 | 29.01056 | -145.81897 | 34185 ft | 431 kts | 242° |
| 2026-05-07 19:38 | 28.98051 | -145.87818 | 34186 ft | 431 kts | 242° |
| 2026-05-07 19:38 | 28.95040 | -145.93738 | 34189 ft | 431 kts | 242° |
| 2026-05-07 19:39 | 28.92539 | -145.98653 | 34185 ft | 431 kts | 242° |
| 2026-05-07 19:39 | 28.89532 | -146.04569 | 34183 ft | 431 kts | 242° |
| 2026-05-07 19:40 | 28.86035 | -146.11438 | 34190 ft | 431 kts | 242° |
| 2026-05-07 19:40 | 28.83022 | -146.17345 | 34185 ft | 431 kts | 242° |
| 2026-05-07 19:41 | 28.80490 | -146.22289 | 34188 ft | 431 kts | 242° |
| 2026-05-07 19:41 | 28.77469 | -146.28187 | 34188 ft | 431 kts | 242° |
| 2026-05-07 19:42 | 28.74448 | -146.34087 | 34189 ft | 431 kts | 242° |
| 2026-05-07 19:42 | 28.71423 | -146.39977 | 34191 ft | 431 kts | 242° |
| 2026-05-07 19:43 | 28.68396 | -146.45864 | 34188 ft | 431 kts | 241° |
| 2026-05-07 19:43 | 28.65361 | -146.51752 | 34195 ft | 431 kts | 241° |
| 2026-05-07 19:44 | 28.62328 | -146.57633 | 34187 ft | 431 kts | 242° |
| 2026-05-07 19:44 | 28.59300 | -146.63517 | 34190 ft | 431 kts | 241° |
| 2026-05-07 19:45 | 28.56261 | -146.69399 | 34190 ft | 431 kts | 241° |
| 2026-05-07 19:45 | 28.53212 | -146.75278 | 34196 ft | 431 kts | 241° |
| 2026-05-07 19:46 | 28.50157 | -146.81148 | 34196 ft | 431 kts | 241° |
| 2026-05-07 19:46 | 28.47120 | -146.87023 | 34193 ft | 431 kts | 241° |
| 2026-05-07 19:47 | 28.44076 | -146.92894 | 34192 ft | 431 kts | 241° |
| 2026-05-07 19:47 | 28.41024 | -146.98751 | 34193 ft | 431 kts | 241° |
| 2026-05-07 19:48 | 28.37989 | -147.04566 | 34194 ft | 431 kts | 241° |
| 2026-05-07 19:48 | 28.34913 | -147.10462 | 34191 ft | 431 kts | 241° |
| 2026-05-07 19:49 | 28.31855 | -147.16320 | 34195 ft | 432 kts | 241° |
| 2026-05-07 19:49 | 28.28786 | -147.22176 | 34196 ft | 432 kts | 241° |
| 2026-05-07 19:50 | 28.25715 | -147.28033 | 34199 ft | 432 kts | 241° |
| 2026-05-07 19:50 | 28.22662 | -147.33851 | 34200 ft | 432 kts | 241° |
| 2026-05-07 19:51 | 28.19587 | -147.39697 | 34203 ft | 432 kts | 240° |
| 2026-05-07 19:51 | 28.16513 | -147.45538 | 34198 ft | 431 kts | 240° |
| 2026-05-07 19:52 | 28.13434 | -147.51378 | 34202 ft | 431 kts | 240° |
| 2026-05-07 19:52 | 28.10351 | -147.57203 | 34201 ft | 431 kts | 240° |
| 2026-05-07 19:53 | 28.07268 | -147.63039 | 34199 ft | 431 kts | 240° |
| 2026-05-07 19:53 | 28.04175 | -147.68905 | 34195 ft | 431 kts | 240° |
| 2026-05-07 19:54 | 28.01112 | -147.74679 | 34195 ft | 431 kts | 240° |
| 2026-05-07 19:54 | 27.98023 | -147.80487 | 34194 ft | 431 kts | 240° |
| 2026-05-07 19:55 | 27.94935 | -147.86298 | 34193 ft | 431 kts | 240° |
| 2026-05-07 19:55 | 27.91838 | -147.92102 | 34192 ft | 431 kts | 240° |
| 2026-05-07 19:56 | 27.88744 | -147.97908 | 34195 ft | 431 kts | 240° |
| 2026-05-07 19:56 | 27.85650 | -148.03708 | 34195 ft | 431 kts | 240° |
| 2026-05-07 19:57 | 27.82556 | -148.09506 | 34195 ft | 431 kts | 240° |
| 2026-05-07 19:57 | 27.79458 | -148.15298 | 34193 ft | 431 kts | 240° |
| 2026-05-07 19:58 | 27.76351 | -148.21088 | 34196 ft | 431 kts | 240° |
| 2026-05-07 19:58 | 27.73243 | -148.26869 | 34195 ft | 431 kts | 240° |
| 2026-05-07 19:59 | 27.70134 | -148.32651 | 34194 ft | 431 kts | 240° |
| 2026-05-07 19:59 | 27.67029 | -148.38438 | 34197 ft | 431 kts | 240° |
| 2026-05-07 20:00 | 27.63912 | -148.44214 | 34200 ft | 431 kts | 239° |
| 2026-05-07 20:00 | 27.60792 | -148.49991 | 34197 ft | 431 kts | 240° |
| 2026-05-07 20:01 | 27.57673 | -148.55765 | 34206 ft | 431 kts | 240° |
| 2026-05-07 20:01 | 27.54555 | -148.61541 | 34204 ft | 431 kts | 240° |
| 2026-05-07 20:02 | 27.51427 | -148.67310 | 34199 ft | 431 kts | 239° |
| 2026-05-07 20:02 | 27.48300 | -148.73072 | 34203 ft | 431 kts | 239° |
| 2026-05-07 20:03 | 27.45169 | -148.78827 | 34203 ft | 431 kts | 239° |
| 2026-05-07 20:03 | 27.42037 | -148.84584 | 34210 ft | 431 kts | 239° |
| 2026-05-07 20:04 | 27.38904 | -148.90331 | 34198 ft | 431 kts | 239° |
| 2026-05-07 20:04 | 27.35770 | -148.96079 | 34196 ft | 431 kts | 239° |
| 2026-05-07 20:05 | 27.32640 | -149.01822 | 34191 ft | 431 kts | 239° |
| 2026-05-07 20:05 | 27.29505 | -149.07563 | 34198 ft | 431 kts | 239° |
| 2026-05-07 20:06 | 27.26366 | -149.13293 | 34194 ft | 431 kts | 239° |
| 2026-05-07 20:06 | 27.23219 | -149.19023 | 34189 ft | 431 kts | 239° |
| 2026-05-07 20:07 | 27.20076 | -149.24749 | 34195 ft | 431 kts | 239° |
| 2026-05-07 20:07 | 27.16932 | -149.30473 | 34191 ft | 431 kts | 239° |
| 2026-05-07 20:08 | 27.13780 | -149.36193 | 34197 ft | 431 kts | 239° |
| 2026-05-07 20:08 | 27.10629 | -149.41910 | 34193 ft | 431 kts | 239° |
| 2026-05-07 20:09 | 27.07476 | -149.47622 | 34196 ft | 430 kts | 239° |
| 2026-05-07 20:10 | 27.02742 | -149.56177 | 34196 ft | 430 kts | 239° |
| 2026-05-07 20:10 | 26.99590 | -149.61879 | 34185 ft | 430 kts | 239° |
| 2026-05-07 20:11 | 26.96429 | -149.67574 | 34188 ft | 430 kts | 239° |
| 2026-05-07 20:11 | 26.93264 | -149.73262 | 34186 ft | 430 kts | 239° |
| 2026-05-07 20:12 | 26.90100 | -149.78951 | 34185 ft | 430 kts | 239° |
| 2026-05-07 20:12 | 26.86949 | -149.84646 | 34182 ft | 430 kts | 239° |
| 2026-05-07 20:13 | 26.83783 | -149.90340 | 34190 ft | 430 kts | 239° |
| 2026-05-07 20:13 | 26.80602 | -149.96020 | 34187 ft | 431 kts | 239° |
| 2026-05-07 20:14 | 26.77419 | -150.01696 | 34178 ft | 430 kts | 239° |
| 2026-05-07 20:14 | 26.74251 | -150.07382 | 34188 ft | 430 kts | 239° |
| 2026-05-07 20:15 | 26.71076 | -150.13060 | 34176 ft | 430 kts | 239° |
| 2026-05-07 20:15 | 26.67898 | -150.18735 | 34179 ft | 431 kts | 239° |
| 2026-05-07 20:16 | 26.64709 | -150.24408 | 34185 ft | 431 kts | 238° |
| 2026-05-07 20:16 | 26.61521 | -150.30078 | 34176 ft | 431 kts | 238° |
| 2026-05-07 20:17 | 26.58334 | -150.35745 | 34177 ft | 431 kts | 238° |
| 2026-05-07 20:17 | 26.55139 | -150.41410 | 34177 ft | 431 kts | 238° |
| 2026-05-07 20:18 | 26.51942 | -150.47071 | 34178 ft | 431 kts | 238° |
| 2026-05-07 20:18 | 26.48746 | -150.52737 | 34179 ft | 431 kts | 238° |
| 2026-05-07 20:19 | 26.45542 | -150.58400 | 34182 ft | 431 kts | 238° |
| 2026-05-07 20:19 | 26.42335 | -150.64052 | 34178 ft | 431 kts | 238° |
| 2026-05-07 20:20 | 26.39132 | -150.69706 | 34179 ft | 431 kts | 238° |
| 2026-05-07 20:20 | 26.35927 | -150.75351 | 34176 ft | 431 kts | 238° |
| 2026-05-07 20:21 | 26.32713 | -150.80996 | 34182 ft | 431 kts | 238° |
| 2026-05-07 20:21 | 26.30040 | -150.85682 | 34179 ft | 431 kts | 238° |
| 2026-05-07 20:22 | 26.26824 | -150.91324 | 34183 ft | 431 kts | 238° |
| 2026-05-07 20:22 | 26.23092 | -150.97876 | 34183 ft | 431 kts | 238° |
| 2026-05-07 20:23 | 26.20401 | -151.02600 | 34185 ft | 431 kts | 238° |
| 2026-05-07 20:23 | 26.17183 | -151.08220 | 34184 ft | 431 kts | 238° |
| 2026-05-07 20:24 | 26.13961 | -151.13847 | 34183 ft | 431 kts | 238° |
| 2026-05-07 20:24 | 26.10740 | -151.19470 | 34179 ft | 431 kts | 238° |
| 2026-05-07 20:25 | 26.07505 | -151.25087 | 34178 ft | 431 kts | 238° |
| 2026-05-07 20:25 | 26.04270 | -151.30706 | 34181 ft | 431 kts | 238° |
| 2026-05-07 20:26 | 26.01038 | -151.36326 | 34183 ft | 431 kts | 238° |
| 2026-05-07 20:26 | 25.97800 | -151.41944 | 34187 ft | 431 kts | 238° |
| 2026-05-07 20:27 | 25.94563 | -151.47558 | 34187 ft | 431 kts | 238° |
| 2026-05-07 20:27 | 25.91321 | -151.53169 | 34192 ft | 432 kts | 238° |
| 2026-05-07 20:28 | 25.88077 | -151.58779 | 34189 ft | 432 kts | 238° |
| 2026-05-07 20:28 | 25.84830 | -151.64386 | 34187 ft | 432 kts | 238° |
| 2026-05-07 20:29 | 25.81580 | -151.69987 | 34189 ft | 432 kts | 238° |
| 2026-05-07 20:29 | 25.78333 | -151.75593 | 34186 ft | 432 kts | 238° |
| 2026-05-07 20:30 | 25.75084 | -151.81197 | 34188 ft | 432 kts | 238° |
| 2026-05-07 20:30 | 25.71823 | -151.86796 | 34187 ft | 432 kts | 238° |
| 2026-05-07 20:31 | 25.68558 | -151.92397 | 34193 ft | 432 kts | 238° |
| 2026-05-07 20:31 | 25.65295 | -151.97992 | 34191 ft | 432 kts | 238° |
| 2026-05-07 20:32 | 25.62032 | -152.03592 | 34189 ft | 433 kts | 238° |
| 2026-05-07 20:32 | 25.58759 | -152.09185 | 34192 ft | 433 kts | 237° |
| 2026-05-07 20:33 | 25.55481 | -152.14772 | 34189 ft | 433 kts | 237° |
| 2026-05-07 20:33 | 25.52207 | -152.20364 | 34191 ft | 433 kts | 237° |
| 2026-05-07 20:34 | 25.48928 | -152.25950 | 34192 ft | 433 kts | 237° |
| 2026-05-07 20:34 | 25.45647 | -152.31536 | 34191 ft | 433 kts | 237° |
| 2026-05-07 20:35 | 25.42370 | -152.37120 | 34194 ft | 433 kts | 237° |
| 2026-05-07 20:35 | 25.39086 | -152.42695 | 34191 ft | 433 kts | 237° |
| 2026-05-07 20:36 | 25.35798 | -152.48266 | 34192 ft | 433 kts | 237° |
| 2026-05-07 20:36 | 25.32534 | -152.53799 | 34189 ft | 432 kts | 237° |
| 2026-05-07 20:37 | 25.29244 | -152.59362 | 34190 ft | 432 kts | 237° |
| 2026-05-07 20:37 | 25.25961 | -152.64921 | 34186 ft | 432 kts | 237° |
| 2026-05-07 20:38 | 25.22666 | -152.70479 | 34189 ft | 432 kts | 237° |
| 2026-05-07 20:38 | 25.19374 | -152.76030 | 34189 ft | 432 kts | 237° |
| 2026-05-07 20:39 | 25.16080 | -152.81579 | 34185 ft | 432 kts | 237° |
| 2026-05-07 20:39 | 25.12783 | -152.87119 | 34183 ft | 432 kts | 237° |
| 2026-05-07 20:40 | 25.09486 | -152.92662 | 34178 ft | 432 kts | 237° |
| 2026-05-07 20:40 | 25.06185 | -152.98200 | 34182 ft | 432 kts | 237° |
| 2026-05-07 20:41 | 25.02889 | -153.03730 | 34179 ft | 432 kts | 237° |
| 2026-05-07 20:41 | 24.99586 | -153.09257 | 34176 ft | 432 kts | 237° |
| 2026-05-07 20:42 | 24.96256 | -153.14818 | 34173 ft | 432 kts | 237° |
| 2026-05-07 20:42 | 24.92969 | -153.20309 | 34172 ft | 432 kts | 237° |
| 2026-05-07 20:43 | 24.89657 | -153.25838 | 34176 ft | 432 kts | 237° |
| 2026-05-07 20:43 | 24.86340 | -153.31365 | 34175 ft | 433 kts | 237° |
| 2026-05-07 20:44 | 24.83025 | -153.36896 | 34177 ft | 433 kts | 237° |
| 2026-05-07 20:44 | 24.79700 | -153.42417 | 34177 ft | 433 kts | 236° |
| 2026-05-07 20:45 | 24.76379 | -153.47941 | 34178 ft | 433 kts | 236° |
| 2026-05-07 20:45 | 24.73056 | -153.53464 | 34178 ft | 433 kts | 236° |
| 2026-05-07 20:46 | 24.69724 | -153.58988 | 34182 ft | 433 kts | 236° |
| 2026-05-07 20:46 | 24.66388 | -153.64508 | 34184 ft | 433 kts | 236° |
| 2026-05-07 20:47 | 24.63044 | -153.70024 | 34187 ft | 434 kts | 236° |
| 2026-05-07 20:47 | 24.59701 | -153.75542 | 34182 ft | 433 kts | 236° |
| 2026-05-07 20:48 | 24.56365 | -153.81056 | 34184 ft | 433 kts | 236° |
| 2026-05-07 20:48 | 24.53026 | -153.86561 | 34184 ft | 433 kts | 236° |
| 2026-05-07 20:49 | 24.49681 | -153.92068 | 34182 ft | 433 kts | 236° |
| 2026-05-07 20:49 | 24.46332 | -153.97577 | 34181 ft | 434 kts | 236° |
| 2026-05-07 20:50 | 24.42983 | -154.03080 | 34182 ft | 433 kts | 236° |
| 2026-05-07 20:50 | 24.39638 | -154.08578 | 34178 ft | 433 kts | 236° |
| 2026-05-07 20:51 | 24.36287 | -154.14068 | 34176 ft | 433 kts | 236° |
| 2026-05-07 20:51 | 24.32934 | -154.19552 | 34175 ft | 433 kts | 236° |
| 2026-05-07 20:52 | 24.29575 | -154.25036 | 34174 ft | 433 kts | 236° |
| 2026-05-07 20:52 | 24.26205 | -154.30505 | 34171 ft | 433 kts | 236° |
| 2026-05-07 20:53 | 24.22824 | -154.35958 | 34168 ft | 433 kts | 235° |
| 2026-05-07 20:53 | 24.19442 | -154.41419 | 34171 ft | 433 kts | 235° |
| 2026-05-07 20:54 | 24.16064 | -154.46876 | 34170 ft | 433 kts | 236° |
| 2026-05-07 20:54 | 24.12681 | -154.52336 | 34172 ft | 433 kts | 236° |
| 2026-05-07 20:55 | 24.09297 | -154.57796 | 34175 ft | 433 kts | 236° |
| 2026-05-07 20:55 | 24.05907 | -154.63251 | 34180 ft | 433 kts | 235° |
| 2026-05-07 20:56 | 24.02514 | -154.68702 | 34180 ft | 433 kts | 235° |
| 2026-05-07 20:56 | 23.99116 | -154.74149 | 34178 ft | 433 kts | 235° |
| 2026-05-07 20:57 | 23.95720 | -154.79583 | 34177 ft | 433 kts | 235° |
| 2026-05-07 20:57 | 23.92331 | -154.85020 | 34172 ft | 433 kts | 235° |
| 2026-05-07 20:58 | 23.88934 | -154.90446 | 34172 ft | 433 kts | 235° |
| 2026-05-07 20:58 | 23.85535 | -154.95876 | 34173 ft | 433 kts | 235° |
| 2026-05-07 20:59 | 23.82139 | -155.01311 | 34173 ft | 433 kts | 235° |
| 2026-05-07 20:59 | 23.78741 | -155.06743 | 34172 ft | 433 kts | 235° |
| 2026-05-07 21:00 | 23.75335 | -155.12170 | 34169 ft | 433 kts | 235° |
| 2026-05-07 21:00 | 23.71924 | -155.17591 | 34172 ft | 433 kts | 235° |
| 2026-05-07 21:01 | 23.68510 | -155.23011 | 34174 ft | 433 kts | 235° |
| 2026-05-07 21:01 | 23.65103 | -155.28431 | 34168 ft | 433 kts | 235° |
| 2026-05-07 21:02 | 23.61689 | -155.33852 | 34171 ft | 433 kts | 235° |
| 2026-05-07 21:02 | 23.58272 | -155.39258 | 34171 ft | 433 kts | 235° |
| 2026-05-07 21:03 | 23.54876 | -155.44623 | 34169 ft | 433 kts | 235° |
| 2026-05-07 21:03 | 23.50747 | -155.49352 | 34164 ft | 432 kts | 216° |
| 2026-05-07 21:04 | 23.46563 | -155.52400 | 34161 ft | 432 kts | 214° |
| 2026-05-07 21:04 | 23.40733 | -155.56602 | 34156 ft | 433 kts | 214° |
| 2026-05-07 21:05 | 23.35714 | -155.60229 | 34157 ft | 433 kts | 214° |
| 2026-05-07 21:05 | 23.31510 | -155.63265 | 34158 ft | 433 kts | 214° |
| 2026-05-07 21:06 | 23.26484 | -155.66888 | 34164 ft | 433 kts | 214° |
| 2026-05-07 21:06 | 23.21456 | -155.70508 | 34166 ft | 433 kts | 214° |
| 2026-05-07 21:07 | 23.16433 | -155.74119 | 34166 ft | 433 kts | 214° |
| 2026-05-07 21:07 | 23.11406 | -155.77729 | 34162 ft | 433 kts | 214° |
| 2026-05-07 21:08 | 23.06380 | -155.81332 | 34160 ft | 433 kts | 214° |
| 2026-05-07 21:08 | 23.01355 | -155.84934 | 34157 ft | 433 kts | 214° |
| 2026-05-07 21:09 | 22.96338 | -155.88536 | 34156 ft | 433 kts | 214° |
| 2026-05-07 21:09 | 22.91313 | -155.92136 | 34156 ft | 433 kts | 214° |
| 2026-05-07 21:10 | 22.86285 | -155.95731 | 34155 ft | 433 kts | 214° |
| 2026-05-07 21:10 | 22.81255 | -155.99323 | 34161 ft | 433 kts | 214° |
| 2026-05-07 21:11 | 22.76221 | -156.02914 | 34160 ft | 433 kts | 214° |
| 2026-05-07 21:11 | 22.68687 | -156.08300 | 34160 ft | 433 kts | 214° |
| 2026-05-07 21:12 | 22.63660 | -156.11882 | 34160 ft | 432 kts | 214° |
| 2026-05-07 21:12 | 22.58630 | -156.15455 | 34157 ft | 432 kts | 214° |
| 2026-05-07 21:13 | 22.53604 | -156.19029 | 34156 ft | 432 kts | 214° |
| 2026-05-07 21:13 | 22.48574 | -156.22602 | 34154 ft | 432 kts | 214° |
| 2026-05-07 21:14 | 22.43585 | -156.26145 | 34152 ft | 432 kts | 214° |
| 2026-05-07 21:14 | 22.38560 | -156.29709 | 34153 ft | 432 kts | 214° |
| 2026-05-07 21:15 | 22.33555 | -156.33308 | 34147 ft | 432 kts | 218° |
| 2026-05-07 21:15 | 22.29356 | -156.37892 | 34149 ft | 430 kts | 231° |
| 2026-05-07 21:16 | 22.25543 | -156.42863 | 34153 ft | 430 kts | 231° |
| 2026-05-07 21:16 | 22.21713 | -156.47825 | 34154 ft | 430 kts | 231° |
| 2026-05-07 21:17 | 22.17882 | -156.52784 | 34155 ft | 430 kts | 231° |
| 2026-05-07 21:17 | 22.14055 | -156.57750 | 34154 ft | 430 kts | 231° |
| 2026-05-07 21:18 | 22.10229 | -156.62710 | 34148 ft | 430 kts | 231° |
| 2026-05-07 21:18 | 22.06407 | -156.67673 | 34148 ft | 430 kts | 231° |
| 2026-05-07 21:19 | 22.02578 | -156.72633 | 34149 ft | 430 kts | 231° |
| 2026-05-07 21:19 | 21.98748 | -156.77580 | 34153 ft | 430 kts | 231° |
| 2026-05-07 21:20 | 21.94916 | -156.82530 | 34152 ft | 430 kts | 231° |
| 2026-05-07 21:20 | 21.91083 | -156.87474 | 34151 ft | 430 kts | 231° |
| 2026-05-07 21:21 | 21.87252 | -156.92421 | 34152 ft | 430 kts | 231° |
| 2026-05-07 21:21 | 21.83395 | -156.97401 | 34162 ft | 439 kts | 231° |
| 2026-05-07 21:22 | 21.81432 | -156.99936 | 33577 ft | 444 kts | 231° |
| 2026-05-07 21:22 | 21.79422 | -157.02531 | 32357 ft | 456 kts | 231° |
| 2026-05-07 21:22 | 21.77389 | -157.05150 | 31691 ft | 455 kts | 231° |
| 2026-05-07 21:22 | 21.75362 | -157.07756 | 31116 ft | 453 kts | 230° |
| 2026-05-07 21:23 | 21.73350 | -157.10340 | 30572 ft | 449 kts | 230° |
| 2026-05-07 21:23 | 21.71350 | -157.12909 | 30010 ft | 446 kts | 230° |
| 2026-05-07 21:23 | 21.69367 | -157.15458 | 29390 ft | 443 kts | 230° |
| 2026-05-07 21:23 | 21.67402 | -157.17988 | 28793 ft | 439 kts | 231° |
| 2026-05-07 21:24 | 21.65454 | -157.20495 | 28217 ft | 435 kts | 230° |
| 2026-05-07 21:24 | 21.63519 | -157.22982 | 27649 ft | 432 kts | 230° |
| 2026-05-07 21:24 | 21.61600 | -157.25445 | 27095 ft | 428 kts | 230° |
| 2026-05-07 21:24 | 21.59694 | -157.27889 | 26557 ft | 425 kts | 230° |
| 2026-05-07 21:25 | 21.57802 | -157.30312 | 25961 ft | 423 kts | 230° |
| 2026-05-07 21:25 | 21.55919 | -157.32724 | 25455 ft | 419 kts | 230° |
| 2026-05-07 21:25 | 21.54056 | -157.35110 | 24958 ft | 416 kts | 230° |
| 2026-05-07 21:25 | 21.52210 | -157.37479 | 24489 ft | 411 kts | 230° |
| 2026-05-07 21:26 | 21.50383 | -157.39820 | 24031 ft | 407 kts | 230° |
| 2026-05-07 21:26 | 21.48567 | -157.42143 | 23520 ft | 404 kts | 230° |
| 2026-05-07 21:26 | 21.46773 | -157.44438 | 23042 ft | 399 kts | 230° |
| 2026-05-07 21:26 | 21.46174 | -157.45205 | 22885 ft | 397 kts | 230° |
| 2026-05-07 21:27 | 21.44740 | -157.47036 | 22519 ft | 392 kts | 230° |
| 2026-05-07 21:27 | 21.42999 | -157.49263 | 22047 ft | 388 kts | 230° |
| 2026-05-07 21:27 | 21.41277 | -157.51469 | 21582 ft | 383 kts | 230° |
| 2026-05-07 21:27 | 21.39570 | -157.53652 | 21111 ft | 380 kts | 230° |
| 2026-05-07 21:28 | 21.37878 | -157.55813 | 20650 ft | 377 kts | 230° |
| 2026-05-07 21:28 | 21.36196 | -157.57959 | 20182 ft | 374 kts | 230° |
| 2026-05-07 21:28 | 21.34526 | -157.60089 | 19719 ft | 372 kts | 230° |
| 2026-05-07 21:28 | 21.32864 | -157.62205 | 19260 ft | 370 kts | 230° |
| 2026-05-07 21:29 | 21.31210 | -157.64310 | 18791 ft | 368 kts | 230° |
| 2026-05-07 21:29 | 21.29562 | -157.66407 | 18344 ft | 367 kts | 230° |
| 2026-05-07 21:29 | 21.27917 | -157.68502 | 17747 ft | 367 kts | 230° |
| 2026-05-07 21:29 | 21.26272 | -157.70596 | 17246 ft | 366 kts | 230° |
| 2026-05-07 21:30 | 21.24631 | -157.72666 | 16810 ft | 363 kts | 229° |
| 2026-05-07 21:30 | 21.22992 | -157.74708 | 16367 ft | 360 kts | 229° |
| 2026-05-07 21:30 | 21.21360 | -157.76729 | 15933 ft | 357 kts | 229° |
| 2026-05-07 21:30 | 21.19742 | -157.78731 | 15500 ft | 354 kts | 229° |
| 2026-05-07 21:31 | 21.18138 | -157.80718 | 15069 ft | 351 kts | 229° |
| 2026-05-07 21:31 | 21.16543 | -157.82691 | 14638 ft | 349 kts | 229° |
| 2026-05-07 21:31 | 21.14960 | -157.84654 | 14209 ft | 347 kts | 230° |
| 2026-05-07 21:31 | 21.13391 | -157.86604 | 13751 ft | 345 kts | 230° |
| 2026-05-07 21:32 | 21.11834 | -157.88538 | 13310 ft | 341 kts | 230° |
| 2026-05-07 21:32 | 21.10292 | -157.90456 | 12875 ft | 338 kts | 230° |
| 2026-05-07 21:32 | 21.09013 | -157.92542 | 12445 ft | 334 kts | 245° |
| 2026-05-07 21:32 | 21.08341 | -157.94904 | 12021 ft | 332 kts | 261° |
| 2026-05-07 21:33 | 21.08312 | -157.97364 | 11577 ft | 331 kts | 277° |
| 2026-05-07 21:33 | 21.08788 | -157.99769 | 11143 ft | 330 kts | 282° |
| 2026-05-07 21:33 | 21.09307 | -158.02157 | 10696 ft | 329 kts | 282° |
| 2026-05-07 21:33 | 21.09818 | -158.04537 | 10270 ft | 327 kts | 282° |
| 2026-05-07 21:34 | 21.10321 | -158.06872 | 10122 ft | 315 kts | 282° |
| 2026-05-07 21:34 | 21.10806 | -158.09116 | 10012 ft | 304 kts | 282° |
| 2026-05-07 21:34 | 21.11274 | -158.11279 | 9864 ft | 293 kts | 282° |
| 2026-05-07 21:34 | 21.11730 | -158.13393 | 9415 ft | 290 kts | 282° |
| 2026-05-07 21:35 | 21.12180 | -158.15488 | 8866 ft | 287 kts | 282° |
| 2026-05-07 21:35 | 21.12916 | -158.17458 | 8319 ft | 286 kts | 303° |
| 2026-05-07 21:35 | 21.14319 | -158.18943 | 7785 ft | 285 kts | 327° |
| 2026-05-07 21:35 | 21.16160 | -158.19689 | 7258 ft | 285 kts | 351° |
| 2026-05-07 21:36 | 21.18140 | -158.19760 | 6719 ft | 284 kts | 359° |
| 2026-05-07 21:36 | 21.20106 | -158.19755 | 6160 ft | 280 kts | 359° |
| 2026-05-07 21:36 | 21.22039 | -158.19747 | 5424 ft | 276 kts | 360° |
| 2026-05-07 21:36 | 21.23958 | -158.19742 | 4854 ft | 274 kts | 0° |
| 2026-05-07 21:37 | 21.25851 | -158.19734 | 4321 ft | 271 kts | 2° |
| 2026-05-07 21:37 | 21.27695 | -158.19304 | 3597 ft | 274 kts | 24° |
| 2026-05-07 21:37 | 21.29242 | -158.18160 | 3047 ft | 269 kts | 47° |
| 2026-05-07 21:37 | 21.30214 | -158.16562 | 3062 ft | 243 kts | 67° |
| 2026-05-07 21:38 | 21.30633 | -158.14904 | 3108 ft | 221 kts | 82° |
| 2026-05-07 21:38 | 21.30665 | -158.13294 | 3110 ft | 213 kts | 89° |
| 2026-05-07 21:38 | 21.30660 | -158.11765 | 3117 ft | 194 kts | 88° |
| 2026-05-07 21:38 | 21.30662 | -158.10410 | 3136 ft | 172 kts | 88° |
| 2026-05-07 21:39 | 21.30665 | -158.09164 | 2930 ft | 162 kts | 87° |
| 2026-05-07 21:39 | 21.30670 | -158.07984 | 2677 ft | 154 kts | 88° |
| 2026-05-07 21:39 | 21.30673 | -158.06861 | 2444 ft | 147 kts | 88° |
| 2026-05-07 21:39 | 21.30673 | -158.05781 | 2216 ft | 143 kts | 85° |
| 2026-05-07 21:40 | 21.30682 | -158.04715 | 2035 ft | 142 kts | 82° |
| 2026-05-07 21:40 | 21.30897 | -158.03696 | 1840 ft | 139 kts | 70° |
| 2026-05-07 21:40 | 21.31233 | -158.02719 | 1659 ft | 142 kts | 67° |
| 2026-05-07 21:40 | 21.31598 | -158.01740 | 1479 ft | 140 kts | 65° |
| 2026-05-07 21:41 | 21.31967 | -158.00761 | 1283 ft | 141 kts | 64° |
| 2026-05-07 21:41 | 21.32322 | -157.99777 | 1051 ft | 142 kts | 70° |
| 2026-05-07 21:41 | 21.32494 | -157.98727 | 848 ft | 142 kts | 84° |
| 2026-05-07 21:41 | 21.32537 | -157.97664 | 694 ft | 147 kts | 86° |
| 2026-05-07 21:42 | 21.32523 | -157.96575 | 537 ft | 143 kts | 88° |
| 2026-05-07 21:42 | 21.32523 | -157.95490 | 270 ft | 147 kts | 83° |
| 2026-05-07 21:42 | 21.32528 | -157.94415 | 111 ft | 142 kts | 87° |
| 2026-05-07 21:42 | 21.32528 | -157.93374 | 34 ft | 133 kts | 85° |
| 2026-05-07 21:43 | 21.32526 | -157.92497 | 24 ft | 90 kts | 89° |
| 2026-05-07 21:43 | 21.32528 | -157.92112 | 24 ft | 28 kts | 90° |
| 2026-05-07 21:43 | 21.32557 | -157.91971 | 24 ft | 17 kts | 48° |
| 2026-05-07 21:43 | 21.32644 | -157.91922 | 25 ft | 8 kts | 24° |
| 2026-05-07 21:44 | 21.32692 | -157.91900 | 24 ft | 7 kts | 13° |
| 2026-05-07 21:44 | 21.32762 | -157.91946 | 24 ft | 15 kts | 305° |
| 2026-05-07 21:44 | 21.32774 | -157.92054 | 24 ft | 14 kts | 270° |
| 2026-05-07 21:44 | 21.32774 | -157.92157 | 24 ft | 13 kts | 270° |
| 2026-05-07 21:45 | 21.32774 | -157.92252 | 24 ft | 12 kts | 269° |
| 2026-05-07 21:45 | 21.32773 | -157.92340 | 24 ft | 11 kts | 270° |
| 2026-05-07 21:45 | 21.32774 | -157.92394 | 24 ft | 11 kts | 270° |
| 2026-05-07 21:45 | 21.32775 | -157.92469 | 24 ft | 10 kts | 270° |
| 2026-05-07 21:46 | 21.32774 | -157.92568 | 24 ft | 15 kts | 269° |
| 2026-05-07 21:46 | 21.32774 | -157.92678 | 24 ft | 14 kts | 270° |
| 2026-05-07 21:46 | 21.32764 | -157.92785 | 27 ft | 14 kts | 294° |
| 2026-05-07 21:46 | 21.32852 | -157.92809 | 24 ft | 14 kts | 2° |
| 2026-05-07 21:47 | 21.32932 | -157.92763 | 25 ft | 14 kts | 43° |
| 2026-05-07 21:47 | 21.32999 | -157.92690 | 26 ft | 14 kts | 46° |
| 2026-05-07 21:47 | 21.33067 | -157.92620 | 24 ft | 14 kts | 39° |
| 2026-05-07 21:47 | 21.33153 | -157.92576 | 24 ft | 14 kts | 19° |
| 2026-05-07 21:48 | 21.33251 | -157.92555 | 24 ft | 17 kts | 9° |
| 2026-05-07 21:48 | 21.33376 | -157.92537 | 24 ft | 18 kts | 6° |
| 2026-05-07 21:48 | 21.33484 | -157.92549 | 24 ft | 15 kts | 329° |
| 2026-05-07 21:48 | 21.33574 | -157.92610 | 26 ft | 15 kts | 336° |
| 2026-05-07 21:49 | 21.33675 | -157.92614 | 24 ft | 15 kts | 11° |
| 2026-05-07 21:49 | 21.33763 | -157.92563 | 25 ft | 15 kts | 56° |
| 2026-05-07 21:49 | 21.33773 | -157.92467 | 24 ft | 8 kts | 120° |
| 2026-05-07 21:49 | 21.33758 | -157.92458 | 25 ft | 1 kts | 161° |
| 2026-05-07 21:50 | 21.33722 | -157.92456 | 24 ft | 4 kts | 176° |
| 2026-05-07 21:50 | 21.33706 | -157.92455 | 24 ft | 2 kts | 174° |
| 2026-05-07 21:50 | 21.33695 | -157.92454 | 24 ft | 1 kts | 174° |
| 2026-05-07 21:50 | 21.33693 | -157.92453 | 24 ft | 0 kts | 174° |